Time;durP1;ratioP1;P1;durP2;ratioP2;P2;SDS_P1;SDS_P2;PMS_P1;PMS_P2;Temp;Humidity;BMP_temperature;BMP_pressure;BME280_temperature;BME280_humidity;BME280_pressure;Samples;Min_cycle;Max_cycle;Signal;HPM_P1;HPM_P2
2023/12/05 00:01:51;;;;;;;9.03;7.00;;;;;;;0.34;100.00;151458.25;5029564;28;20961;-75
2023/12/05 00:04:17;;;;;;;10.23;7.10;;;;;;;0.37;100.00;151465.91;5028718;28;20989;-75
2023/12/05 00:06:43;;;;;;;8.23;6.33;;;;;;;0.38;100.00;151468.50;5047366;28;20443;-75
2023/12/05 00:09:10;;;;;;;11.07;8.17;;;;;;;0.37;100.00;151464.66;5027744;28;20533;-75
2023/12/05 00:11:39;;;;;;;9.77;7.27;;;;;;;0.34;100.00;151456.97;5038285;28;20299;-76
2023/12/05 00:14:06;;;;;;;9.40;7.80;;;;;;;0.37;100.00;151464.66;5030934;28;20483;-75
2023/12/05 00:16:33;;;;;;;10.10;7.60;;;;;;;0.40;100.00;151473.63;5029908;28;20431;-75
2023/12/05 00:19:01;;;;;;;10.00;7.10;;;;;;;0.38;100.00;151468.50;5026504;28;20504;-75
2023/12/05 00:21:27;;;;;;;11.00;7.47;;;;;;;0.38;100.00;151467.19;5028929;28;20452;-75
2023/12/05 00:23:54;;;;;;;9.07;6.90;;;;;;;0.44;100.00;151483.91;5011949;28;20495;-75
2023/12/05 00:26:21;;;;;;;10.20;6.47;;;;;;;0.45;100.00;151485.22;5026885;28;20462;-75
2023/12/05 00:28:47;;;;;;;7.67;5.90;;;;;;;0.45;100.00;151486.44;5021553;28;20492;-76
2023/12/05 00:31:14;;;;;;;8.80;6.50;;;;;;;0.46;100.00;151487.75;5029676;28;20533;-75
2023/12/05 00:33:41;;;;;;;9.00;6.67;;;;;;;0.51;100.00;151500.56;5027575;28;20998;-76
2023/12/05 00:36:09;;;;;;;8.70;5.70;;;;;;;0.53;100.00;151507.00;5025569;28;20801;-76
2023/12/05 00:38:36;;;;;;;8.30;5.70;;;;;;;0.58;100.00;151518.59;5030211;28;20559;-75
2023/12/05 00:41:03;;;;;;;7.13;5.50;;;;;;;0.61;100.00;151527.53;5030318;28;20490;-75
2023/12/05 00:43:29;;;;;;;8.57;5.60;;;;;;;0.59;100.00;151522.41;5029733;28;20440;-76
2023/12/05 00:45:56;;;;;;;9.70;5.90;;;;;;;0.59;100.00;151521.13;5022831;28;20463;-75
2023/12/05 00:48:23;;;;;;;7.63;6.13;;;;;;;0.58;100.00;151518.59;5025657;28;20483;-75
2023/12/05 00:50:49;;;;;;;7.13;5.87;;;;;;;0.56;100.00;151513.41;5028573;28;20436;-75
2023/12/05 00:53:17;;;;;;;8.03;6.13;;;;;;;0.54;100.00;151509.59;5026865;28;20462;-76
2023/12/05 00:55:44;;;;;;;8.53;6.13;;;;;;;0.56;100.00;151514.69;5024035;28;20440;-75
2023/12/05 00:58:10;;;;;;;10.63;6.47;;;;;;;0.54;100.00;151508.28;5026635;28;21125;-75
2023/12/05 01:00:37;;;;;;;7.87;5.87;;;;;;;0.55;100.00;151510.88;5029743;28;20440;-75
2023/12/05 01:03:04;;;;;;;10.47;6.87;;;;;;;0.54;100.00;151508.28;5025594;28;20815;-75
2023/12/05 01:05:30;;;;;;;10.97;6.20;;;;;;;0.50;100.00;151499.28;5025827;28;20530;-76
2023/12/05 01:07:57;;;;;;;6.67;5.60;;;;;;;0.51;100.00;151500.56;5028829;28;20926;-75
2023/12/05 01:10:25;;;;;;;8.07;5.60;;;;;;;0.57;100.00;151516.00;5027802;28;20506;-76
2023/12/05 01:12:51;;;;;;;6.93;5.53;;;;;;;0.57;100.00;151516.00;5025268;28;20452;-75
2023/12/05 01:15:18;;;;;;;9.73;5.30;;;;;;;0.57;100.00;151517.28;5027704;28;20816;-76
2023/12/05 01:17:44;;;;;;;6.50;4.83;;;;;;;0.60;100.00;151523.72;5030072;28;20441;-76
2023/12/05 01:20:12;;;;;;;5.80;4.80;;;;;;;0.61;100.00;151526.25;5031634;28;20454;-76
2023/12/05 01:22:38;;;;;;;4.40;3.80;;;;;;;0.66;100.00;151537.84;5024430;28;20566;-76
2023/12/05 01:25:07;;;;;;;4.80;3.70;;;;;;;0.66;100.00;151539.13;5028476;28;20460;-75
2023/12/05 01:27:35;;;;;;;4.87;3.33;;;;;;;0.71;100.00;151551.97;5026691;28;20472;-76
2023/12/05 01:30:02;;;;;;;5.03;3.80;;;;;;;0.75;100.00;151562.22;5042080;28;20547;-76
2023/12/05 01:32:29;;;;;;;4.77;3.50;;;;;;;0.80;100.00;151575.03;5025337;28;20447;-76
2023/12/05 01:34:56;;;;;;;3.93;2.93;;;;;;;0.85;100.00;151587.88;5027022;28;20454;-76
2023/12/05 01:37:23;;;;;;;3.60;2.73;;;;;;;0.88;100.00;151594.31;5029364;28;21043;-75
2023/12/05 01:39:49;;;;;;;4.60;3.20;;;;;;;0.89;100.00;151598.19;5023539;28;20620;-75
2023/12/05 01:42:16;;;;;;;4.10;2.50;;;;;;;0.93;100.00;151608.44;5026435;28;20436;-76
2023/12/05 01:44:44;;;;;;;4.83;3.33;;;;;;;0.93;100.00;151608.44;5043652;28;20440;-76
2023/12/05 01:47:11;;;;;;;4.10;2.50;;;;;;;0.94;100.00;151609.72;5026467;28;20734;-76
2023/12/05 01:49:38;;;;;;;4.57;3.03;;;;;;;0.91;100.00;151603.31;5022313;28;21026;-75
2023/12/05 01:52:06;;;;;;;3.50;2.73;;;;;;;0.89;100.00;151598.19;5016711;28;20442;-76
2023/12/05 01:54:32;;;;;;;3.57;2.90;;;;;;;0.84;100.00;151585.34;5008509;28;20824;-75
2023/12/05 01:57:00;;;;;;;4.60;2.90;;;;;;;0.83;100.00;151582.75;5024366;28;20497;-75
2023/12/05 01:59:26;;;;;;;4.00;2.77;;;;;;;0.83;100.00;151581.47;5024785;28;20455;-75
2023/12/05 02:01:55;;;;;;;5.30;3.23;;;;;;;0.84;100.00;151585.34;5028748;28;20436;-75
2023/12/05 02:04:22;;;;;;;5.60;3.17;;;;;;;0.81;100.00;151577.63;5027795;28;20483;-82
2023/12/05 02:06:49;;;;;;;5.50;3.20;;;;;;;0.78;100.00;151569.91;5025928;28;20455;-82
2023/12/05 02:09:16;;;;;;;5.40;2.80;;;;;;;0.79;100.00;151572.50;5025953;28;20492;-82
2023/12/05 02:11:43;;;;;;;3.37;2.77;;;;;;;0.84;100.00;151585.34;5030624;28;20451;-82
2023/12/05 02:14:10;;;;;;;6.33;3.57;;;;;;;0.84;100.00;151584.06;5028436;28;20455;-82
2023/12/05 02:16:38;;;;;;;4.90;3.47;;;;;;;0.83;100.00;151582.75;5023604;28;20459;-82
2023/12/05 02:19:14;;;;;;;5.27;3.77;;;;;;;0.82;100.00;151580.16;5025565;28;20452;-82
2023/12/05 02:21:41;;;;;;;4.30;3.00;;;;;;;0.84;100.00;151584.06;5026023;28;20443;-81
2023/12/05 02:24:26;;;;;;;5.37;3.13;;;;;;;0.79;100.00;151572.50;5029361;28;20460;-81
2023/12/05 02:26:59;;;;;;;4.23;3.40;;;;;;;0.81;100.00;151576.34;5020676;28;20540;-82
2023/12/05 02:29:27;;;;;;;5.27;3.77;;;;;;;0.86;100.00;151590.47;5025803;28;20990;-81
2023/12/05 02:31:54;;;;;;;5.00;3.33;;;;;;;0.87;100.00;151593.06;5028272;28;20443;-81
2023/12/05 02:34:20;;;;;;;4.80;3.70;;;;;;;0.83;100.00;151582.75;5026469;28;20566;-81
2023/12/05 02:36:58;;;;;;;6.90;3.90;;;;;;;0.81;100.00;151576.34;5027997;28;20431;-81
2023/12/05 02:39:30;;;;;;;6.03;4.17;;;;;;;0.79;100.00;151572.50;5026557;28;20539;-81
2023/12/05 02:41:57;;;;;;;5.67;3.90;;;;;;;0.79;100.00;151572.50;5028404;28;20958;-81
2023/12/05 02:44:25;;;;;;;5.17;3.80;;;;;;;0.77;100.00;151567.34;5009774;28;20459;-81
2023/12/05 02:46:53;;;;;;;6.27;4.20;;;;;;;0.79;100.00;151571.22;5027925;28;20463;-80
2023/12/05 02:49:20;;;;;;;4.73;4.00;;;;;;;0.83;100.00;151582.75;5027957;28;20479;-80
2023/12/05 02:51:46;;;;;;;4.93;3.40;;;;;;;0.82;100.00;151580.16;5013475;28;20444;-81
2023/12/05 02:54:13;;;;;;;6.40;3.80;;;;;;;0.82;100.00;151580.16;5029043;28;20452;-80
2023/12/05 02:56:39;;;;;;;4.70;3.60;;;;;;;0.82;100.00;151580.16;5028000;28;20459;-81
2023/12/05 02:59:06;;;;;;;5.37;3.40;;;;;;;0.78;100.00;151569.91;5025133;28;20447;-80
2023/12/05 03:01:34;;;;;;;5.40;3.93;;;;;;;0.79;100.00;151572.50;5022580;28;20547;-81
2023/12/05 03:04:02;;;;;;;4.77;3.87;;;;;;;0.84;100.00;151585.34;5027890;28;20907;-81
2023/12/05 03:06:28;;;;;;;6.00;3.60;;;;;;;0.82;100.00;151580.16;5034994;28;20464;-80
2023/12/05 03:08:56;;;;;;;5.63;3.80;;;;;;;0.86;100.00;151590.47;5028049;28;20925;-81
2023/12/05 03:11:22;;;;;;;5.93;3.70;;;;;;;0.84;100.00;151585.34;5032574;28;20447;-80
2023/12/05 03:13:49;;;;;;;5.27;3.60;;;;;;;0.89;100.00;151596.88;5028160;28;20448;-81
2023/12/05 03:16:15;;;;;;;4.03;3.00;;;;;;;0.92;100.00;151605.91;5017444;28;20457;-81
2023/12/05 03:18:42;;;;;;;4.23;3.30;;;;;;;0.95;100.00;151612.31;5009230;28;20449;-80
2023/12/05 03:21:10;;;;;;;4.17;2.80;;;;;;;0.96;100.00;151616.16;5029132;28;20436;-80
2023/12/05 03:23:36;;;;;;;4.70;3.27;;;;;;;0.92;100.00;151605.91;5029404;28;20454;-80
2023/12/05 03:26:03;;;;;;;5.53;3.37;;;;;;;1.00;100.00;151625.16;5015757;28;21052;-81
2023/12/05 03:28:29;;;;;;;5.70;3.27;;;;;;;1.03;100.00;151634.09;5022899;28;20484;-81
2023/12/05 03:30:56;;;;;;;4.87;3.20;;;;;;;1.04;100.00;151636.69;5026683;28;20799;-81
2023/12/05 03:33:23;;;;;;;3.93;2.60;;;;;;;1.01;100.00;151628.97;5011163;28;20470;-81
2023/12/05 03:35:49;;;;;;;3.20;2.60;;;;;;;1.03;100.00;151634.09;5026460;28;20461;-81
2023/12/05 03:38:17;;;;;;;5.27;2.87;;;;;;;1.06;100.00;151641.81;5026264;28;20539;-81
2023/12/05 03:40:43;;;;;;;4.90;3.30;;;;;;;1.13;100.00;151659.84;5027749;28;20444;-81
2023/12/05 03:43:10;;;;;;;3.73;2.60;;;;;;;1.09;100.00;151649.53;5027223;28;20467;-81
2023/12/05 03:45:36;;;;;;;4.37;3.20;;;;;;;1.05;100.00;151639.28;5028957;28;20432;-81
2023/12/05 03:48:03;;;;;;;5.70;3.10;;;;;;;1.06;100.00;151641.81;5026394;28;20455;-81
2023/12/05 03:50:30;;;;;;;4.23;2.67;;;;;;;1.07;100.00;151643.13;5029112;28;21013;-80
2023/12/05 03:52:56;;;;;;;3.50;2.50;;;;;;;1.06;100.00;151640.56;5010757;28;20512;-80
2023/12/05 03:55:24;;;;;;;3.67;2.57;;;;;;;1.09;100.00;151649.53;5031598;28;20447;-80
2023/12/05 03:57:51;;;;;;;4.70;2.70;;;;;;;1.04;100.00;151635.41;5046517;28;21072;-80
2023/12/05 04:00:18;;;;;;;4.03;2.80;;;;;;;0.96;100.00;151616.16;5032318;28;20458;-81
2023/12/05 04:02:45;;;;;;;5.17;3.70;;;;;;;0.95;100.00;151612.31;5013239;28;20494;-80
2023/12/05 04:05:12;;;;;;;4.30;2.77;;;;;;;0.93;100.00;151608.44;5030486;28;20502;-81
2023/12/05 04:07:38;;;;;;;4.90;3.20;;;;;;;0.97;100.00;151617.44;5030755;28;20846;-80
2023/12/05 04:10:06;;;;;;;3.90;2.80;;;;;;;0.92;100.00;151604.59;5028218;28;20475;-80
2023/12/05 04:12:34;;;;;;;3.30;2.70;;;;;;;0.87;100.00;151593.06;5033869;28;20461;-80
2023/12/05 04:15:01;;;;;;;2.63;2.43;;;;;;;0.82;100.00;151580.16;5032494;28;20444;-80
2023/12/05 04:17:27;;;;;;;5.57;2.90;;;;;;;0.80;100.00;151573.75;5022630;28;20456;-81
2023/12/05 04:19:54;;;;;;;5.50;3.70;;;;;;;0.77;100.00;151566.09;5031336;28;20458;-81
2023/12/05 04:22:21;;;;;;;4.00;3.00;;;;;;;0.72;100.00;151554.50;5030559;28;20451;-81
2023/12/05 04:24:47;;;;;;;3.90;3.07;;;;;;;0.71;100.00;151551.97;5032169;28;20451;-81
2023/12/05 04:27:14;;;;;;;4.70;3.10;;;;;;;0.73;100.00;151555.78;5022426;28;20467;-81
2023/12/05 04:29:41;;;;;;;3.87;2.63;;;;;;;0.75;100.00;151560.91;5031514;28;20546;-81
2023/12/05 04:32:08;;;;;;;5.17;3.57;;;;;;;0.80;100.00;151575.03;5030605;28;20443;-81
2023/12/05 04:34:35;;;;;;;5.93;2.93;;;;;;;0.80;100.00;151575.03;5013037;28;21001;-81
2023/12/05 04:37:01;;;;;;;3.93;2.53;;;;;;;0.80;100.00;151573.75;5032809;28;20853;-81
2023/12/05 04:39:28;;;;;;;3.63;2.50;;;;;;;0.80;100.00;151575.03;5052199;28;20441;-82
2023/12/05 04:41:54;;;;;;;3.33;2.60;;;;;;;0.82;100.00;151578.94;5040084;28;20502;-81
2023/12/05 04:44:21;;;;;;;4.77;3.23;;;;;;;0.85;100.00;151586.63;5028669;28;20478;-81
2023/12/05 04:46:49;;;;;;;4.63;2.93;;;;;;;0.87;100.00;151591.75;5038789;28;20945;-81
2023/12/05 04:49:16;;;;;;;3.40;2.60;;;;;;;0.84;100.00;151585.34;5050177;28;20474;-81
2023/12/05 04:51:42;;;;;;;3.50;2.60;;;;;;;0.88;100.00;151595.59;5050436;28;20439;-81
2023/12/05 04:54:09;;;;;;;5.63;2.40;;;;;;;0.94;100.00;151611.03;5030053;28;20471;-81
2023/12/05 04:56:35;;;;;;;4.07;2.83;;;;;;;0.96;100.00;151616.16;5029197;28;20903;-81
2023/12/05 04:59:02;;;;;;;4.57;2.60;;;;;;;0.98;100.00;151621.28;5031727;28;20451;-81
2023/12/05 05:01:28;;;;;;;3.60;2.43;;;;;;;0.97;100.00;151618.72;5011795;28;20534;-81
2023/12/05 05:03:56;;;;;;;4.47;2.43;;;;;;;0.97;100.00;151617.44;5029066;28;20451;-81
2023/12/05 05:06:25;;;;;;;3.97;2.83;;;;;;;0.94;100.00;151611.03;5019682;28;21088;-81
2023/12/05 05:08:52;;;;;;;4.50;2.40;;;;;;;0.94;100.00;151609.72;5029603;28;20815;-81
2023/12/05 05:11:18;;;;;;;3.50;2.33;;;;;;;0.98;100.00;151621.28;5027815;28;20790;-80
2023/12/05 05:13:45;;;;;;;4.33;2.53;;;;;;;1.05;100.00;151639.28;5029533;28;20463;-80
2023/12/05 05:16:11;;;;;;;5.13;2.93;;;;;;;0.98;100.00;151621.28;5028918;28;20514;-80
2023/12/05 05:18:38;;;;;;;4.53;2.73;;;;;;;0.94;100.00;151609.72;5020786;28;20460;-80
2023/12/05 05:21:06;;;;;;;5.20;2.37;;;;;;;0.89;100.00;151598.19;5030576;28;20444;-80
2023/12/05 05:23:33;;;;;;;3.50;2.80;;;;;;;0.88;100.00;151595.59;5028950;28;20830;-81
2023/12/05 05:26:00;;;;;;;4.17;2.47;;;;;;;0.89;100.00;151596.88;5028678;28;20436;-80
2023/12/05 05:28:26;;;;;;;4.33;2.40;;;;;;;0.94;100.00;151611.03;5027282;28;20518;-80
2023/12/05 05:30:54;;;;;;;4.97;3.50;;;;;;;0.96;100.00;151616.16;5030847;28;20463;-81
2023/12/05 05:33:21;;;;;;;3.60;2.70;;;;;;;1.04;100.00;151636.69;5030148;28;20510;-80
2023/12/05 05:35:47;;;;;;;3.80;3.00;;;;;;;1.05;100.00;151639.28;5025926;28;20451;-81
2023/12/05 05:38:15;;;;;;;4.67;2.83;;;;;;;1.04;100.00;151636.69;5027066;28;21000;-81
2023/12/05 05:40:42;;;;;;;5.57;2.67;;;;;;;1.03;100.00;151632.88;5012352;28;20985;-81
2023/12/05 05:43:09;;;;;;;3.83;2.90;;;;;;;0.98;100.00;151620.03;5030094;28;20801;-81
2023/12/05 05:45:35;;;;;;;4.63;2.90;;;;;;;0.96;100.00;151616.16;5021419;28;20498;-81
2023/12/05 05:48:02;;;;;;;3.10;2.33;;;;;;;0.93;100.00;151608.44;5029622;28;20946;-81
2023/12/05 05:50:28;;;;;;;4.27;2.80;;;;;;;1.00;100.00;151626.44;5028159;28;20531;-81
2023/12/05 05:52:55;;;;;;;3.50;3.10;;;;;;;1.05;100.00;151639.28;5028432;28;20836;-81
2023/12/05 05:55:24;;;;;;;4.30;3.20;;;;;;;1.06;100.00;151640.56;5013534;28;22522;-80
2023/12/05 05:57:51;;;;;;;3.20;2.70;;;;;;;1.14;100.00;151662.38;5029867;28;20458;-80
2023/12/05 06:00:18;;;;;;;2.70;2.20;;;;;;;1.16;100.00;151667.56;5029543;28;21048;-80
2023/12/05 06:02:45;;;;;;;5.50;3.70;;;;;;;1.18;100.00;151671.38;5026262;28;20471;-80
2023/12/05 06:05:12;;;;;;;3.83;2.90;;;;;;;1.21;100.00;151680.41;5033581;28;20470;-80
2023/12/05 06:07:39;;;;;;;4.77;2.77;;;;;;;1.16;100.00;151667.56;5024232;28;20488;-80
2023/12/05 06:10:06;;;;;;;3.90;2.27;;;;;;;1.14;100.00;151662.38;5025125;28;20481;-80
2023/12/05 06:12:34;;;;;;;4.60;2.60;;;;;;;1.12;100.00;151657.25;5024396;28;20452;-80
2023/12/05 06:15:01;;;;;;;3.33;2.90;;;;;;;1.05;100.00;151639.28;5028479;28;20529;-80
2023/12/05 06:17:27;;;;;;;4.67;3.00;;;;;;;1.05;100.00;151638.00;5026618;28;20498;-80
2023/12/05 06:19:54;;;;;;;3.53;2.73;;;;;;;1.05;100.00;151639.28;5035702;28;20455;-80
2023/12/05 06:22:20;;;;;;;3.60;3.03;;;;;;;1.05;100.00;151639.28;5014730;28;20987;-80
2023/12/05 06:24:47;;;;;;;3.20;2.50;;;;;;;1.09;100.00;151649.53;5031954;28;20455;-80
2023/12/05 06:27:13;;;;;;;4.20;2.90;;;;;;;1.09;100.00;151648.25;5026152;28;20537;-81
2023/12/05 06:29:41;;;;;;;5.33;2.87;;;;;;;1.08;100.00;151647.00;5008440;28;20494;-81
2023/12/05 06:32:08;;;;;;;4.10;3.30;;;;;;;1.02;100.00;151631.56;5036451;28;20439;-81
2023/12/05 06:34:34;;;;;;;4.20;3.10;;;;;;;0.98;100.00;151621.28;5020591;28;20452;-81
2023/12/05 06:37:01;;;;;;;5.20;3.30;;;;;;;0.97;100.00;151618.72;5022658;28;20794;-80
2023/12/05 06:39:28;;;;;;;7.77;3.07;;;;;;;0.97;100.00;151618.72;5017854;28;20467;-81
2023/12/05 06:41:55;;;;;;;3.27;2.87;;;;;;;0.97;100.00;151618.72;5015101;28;20452;-81
2023/12/05 06:44:21;;;;;;;3.90;2.50;;;;;;;1.05;100.00;151639.28;5014266;28;20464;-81
2023/12/05 06:46:49;;;;;;;4.00;2.73;;;;;;;1.04;100.00;151636.69;5025184;28;20977;-81
2023/12/05 06:49:16;;;;;;;3.80;2.70;;;;;;;1.08;100.00;151647.00;5012489;28;20495;-81
2023/12/05 06:51:42;;;;;;;3.50;2.50;;;;;;;1.16;100.00;151667.56;5013717;28;20473;-81
2023/12/05 06:54:09;;;;;;;3.43;2.37;;;;;;;1.17;100.00;151668.78;5015607;28;20470;-81
2023/12/05 06:56:35;;;;;;;3.07;2.30;;;;;;;1.18;100.00;151671.38;5015824;28;20850;-81
2023/12/05 06:59:03;;;;;;;3.37;2.13;;;;;;;1.24;100.00;151686.81;5012584;28;20459;-81
2023/12/05 07:01:30;;;;;;;4.27;2.20;;;;;;;1.24;100.00;151688.06;5015199;28;21041;-81
2023/12/05 07:03:58;;;;;;;3.30;2.40;;;;;;;1.21;100.00;151679.09;5015357;28;20970;-81
2023/12/05 07:06:24;;;;;;;5.23;2.80;;;;;;;1.20;100.00;151676.50;5014529;28;20459;-81
2023/12/05 07:08:51;;;;;;;3.23;2.50;;;;;;;1.18;100.00;151672.69;5017583;28;20491;-81
2023/12/05 07:11:17;;;;;;;5.10;2.97;;;;;;;1.20;100.00;151676.50;5030252;28;20878;-81
2023/12/05 07:13:48;;;;;;;3.87;2.60;;;;;;;1.18;100.00;151672.69;5014242;28;20459;-81
2023/12/05 07:16:15;;;;;;;4.40;3.10;;;;;;;1.15;100.00;151664.97;5014791;28;20451;-81
2023/12/05 07:18:41;;;;;;;3.13;2.53;;;;;;;1.09;100.00;151649.53;5033573;28;20464;-81
2023/12/05 07:21:10;;;;;;;4.33;3.47;;;;;;;1.14;100.00;151662.38;5029343;28;20467;-80
2023/12/05 07:23:37;;;;;;;3.47;2.60;;;;;;;1.14;100.00;151661.09;5014741;28;20459;-81
2023/12/05 07:26:04;;;;;;;3.90;2.43;;;;;;;1.12;100.00;151655.97;5014716;28;20452;-81
2023/12/05 07:28:31;;;;;;;2.87;2.23;;;;;;;1.12;100.00;151657.25;5023342;28;20451;-81
2023/12/05 07:30:58;;;;;;;3.83;2.67;;;;;;;1.12;100.00;151657.25;5025448;28;20472;-81
2023/12/05 07:33:25;;;;;;;4.17;2.03;;;;;;;1.13;100.00;151659.84;5040595;28;20464;-83
2023/12/05 07:35:51;;;;;;;4.00;2.90;;;;;;;1.11;100.00;151654.66;5010975;28;20460;-82
2023/12/05 07:38:19;;;;;;;4.20;2.70;;;;;;;1.12;100.00;151657.25;5021836;28;20509;-83
2023/12/05 07:40:46;;;;;;;3.43;2.40;;;;;;;1.14;100.00;151662.38;5020634;28;20507;-83
2023/12/05 07:43:12;;;;;;;3.07;2.20;;;;;;;1.19;100.00;151673.97;5018335;28;20521;-82
2023/12/05 07:45:39;;;;;;;3.37;2.40;;;;;;;1.24;100.00;151688.06;5019551;28;20455;-82
2023/12/05 07:48:06;;;;;;;3.00;2.60;;;;;;;1.35;100.00;151713.78;5020486;28;21271;-83
2023/12/05 07:50:32;;;;;;;3.83;2.17;;;;;;;1.49;100.00;151749.72;5019349;28;20922;-80
2023/12/05 07:52:59;;;;;;;2.53;2.10;;;;;;;1.53;100.00;151760.03;5032343;28;20463;-81
2023/12/05 07:55:26;;;;;;;4.97;3.10;;;;;;;1.53;100.00;151760.03;5019921;28;20448;-86
2023/12/05 07:57:53;;;;;;;4.30;3.07;;;;;;;1.60;100.00;151778.00;5018318;28;20865;-82
2023/12/05 08:00:20;;;;;;;3.93;2.60;;;;;;;1.62;100.00;151784.44;5035568;28;20459;-83
2023/12/05 08:02:47;;;;;;;3.67;2.63;;;;;;;1.61;100.00;151780.59;5017066;28;20459;-82
2023/12/05 08:05:14;;;;;;;3.90;2.10;;;;;;;1.63;100.00;151787.03;5018674;28;20803;-83
2023/12/05 08:07:40;;;;;;;3.73;2.80;;;;;;;1.66;100.00;151793.44;5019238;28;20538;-81
2023/12/05 08:10:08;;;;;;;3.20;2.70;;;;;;;1.68;100.00;151799.88;5035812;28;20488;-81
2023/12/05 08:12:36;;;;;;;3.27;2.20;;;;;;;1.66;100.00;151793.44;5019658;28;20462;-81
2023/12/05 08:15:04;;;;;;;3.97;2.47;;;;;;;1.67;100.00;151797.28;5019931;28;20456;-81
2023/12/05 08:17:30;;;;;;;6.20;2.50;;;;;;;1.72;100.00;151808.88;5034164;28;20656;-81
2023/12/05 08:19:57;;;;;;;2.97;2.30;;;;;;;1.78;100.00;151825.56;5021457;28;20456;-80
2023/12/05 08:22:25;;;;;;;3.33;2.30;;;;;;;1.82;100.00;151834.56;5032905;28;20456;-81
2023/12/05 08:24:52;;;;;;;3.63;2.33;;;;;;;1.89;100.00;151852.56;5018541;28;20461;-81
2023/12/05 08:27:18;;;;;;;4.27;2.77;;;;;;;1.94;100.00;151864.09;5032877;28;20983;-80
2023/12/05 08:29:46;;;;;;;3.30;2.50;;;;;;;2.07;100.00;151897.53;5032549;28;20475;-81
2023/12/05 08:32:13;;;;;;;4.87;2.40;;;;;;;2.17;100.00;151923.28;5034654;28;20451;-80
2023/12/05 08:34:39;;;;;;;2.80;2.13;;;;;;;2.16;100.00;151920.69;5017785;28;20497;-81
2023/12/05 08:37:06;;;;;;;3.30;2.10;;;;;;;2.19;100.00;151929.72;5017361;28;20846;-80
2023/12/05 08:39:32;;;;;;;3.50;2.30;;;;;;;2.21;100.00;151934.84;5019528;28;20473;-81
2023/12/05 08:42:00;;;;;;;3.93;2.50;;;;;;;2.22;100.00;151936.13;5033231;28;20558;-80
2023/12/05 08:44:26;;;;;;;2.60;2.00;;;;;;;2.29;100.00;151955.41;5034400;28;20819;-80
2023/12/05 08:46:54;;;;;;;3.27;2.07;;;;;;;2.29;100.00;151955.41;5022605;28;20444;-81
2023/12/05 08:49:20;;;;;;;3.77;2.47;;;;;;;2.28;100.00;151952.81;5018708;28;20821;-80
2023/12/05 08:51:47;;;;;;;5.50;1.67;;;;;;;2.26;100.00;151947.69;5015727;28;20476;-81
2023/12/05 08:54:14;;;;;;;2.13;1.60;;;;;;;2.24;100.00;151942.56;5018206;28;20460;-80
2023/12/05 08:56:40;;;;;;;2.77;1.90;;;;;;;2.20;100.00;151932.25;5019737;28;20454;-80
2023/12/05 08:59:07;;;;;;;1.87;1.40;;;;;;;2.18;100.00;151927.13;5020497;28;21095;-81
2023/12/05 09:01:33;;;;;;;2.10;1.17;;;;;;;2.11;100.00;151907.84;5018062;28;20874;-81
2023/12/05 09:04:01;;;;;;;2.57;1.50;;;;;;;2.28;100.00;151952.81;5034237;28;20511;-80
2023/12/05 09:06:28;;;;;;;2.57;1.10;;;;;;;2.35;100.00;151969.56;5019576;28;20506;-80
2023/12/05 09:08:54;;;;;;;1.93;1.20;;;;;;;2.38;100.00;151977.28;5034671;28;20492;-80
2023/12/05 09:11:21;;;;;;;1.83;1.33;;;;;;;2.41;100.00;151986.25;5017363;28;20525;-80
2023/12/05 09:13:48;;;;;;;1.80;1.57;;;;;;;2.40;100.00;151983.72;5017561;28;20853;-80
2023/12/05 09:16:14;;;;;;;1.70;1.37;;;;;;;2.47;100.00;152001.69;5016505;28;20490;-79
2023/12/05 09:18:41;;;;;;;3.80;1.50;;;;;;;2.47;100.00;152001.69;5017359;28;20447;-79
2023/12/05 09:21:09;;;;;;;2.40;1.43;;;;;;;2.54;100.00;152017.16;5016688;28;20463;-80
2023/12/05 09:23:36;;;;;;;3.80;1.40;;;;;;;2.58;100.00;152027.41;5018190;28;20455;-80
2023/12/05 09:26:03;;;;;;;1.87;1.30;;;;;;;2.57;100.00;152024.88;5033754;28;20823;-80
2023/12/05 09:28:31;;;;;;;2.43;1.37;;;;;;;2.57;100.00;152024.88;5021914;28;20466;-80
2023/12/05 09:30:58;;;;;;;2.70;1.17;;;;;;;2.61;100.00;152035.13;5031237;28;20480;-80
2023/12/05 09:33:24;;;;;;;2.23;1.87;;;;;;;2.64;100.00;152042.84;5021513;28;20934;-80
2023/12/05 09:35:51;;;;;;;4.07;1.63;;;;;;;2.63;100.00;152040.25;5016762;28;20455;-80
2023/12/05 09:38:19;;;;;;;3.30;1.70;;;;;;;2.59;100.00;152030.00;5017836;28;20460;-80
2023/12/05 09:40:46;;;;;;;2.10;1.23;;;;;;;2.55;100.00;152019.69;5020473;28;20451;-80
2023/12/05 09:43:13;;;;;;;3.23;1.73;;;;;;;2.57;100.00;152024.88;5019745;28;20723;-80
2023/12/05 09:45:41;;;;;;;2.00;1.30;;;;;;;2.54;100.00;152018.44;5019396;28;21178;-81
2023/12/05 09:48:09;;;;;;;2.37;1.27;;;;;;;2.57;100.00;152024.88;5017340;28;20543;-81
2023/12/05 09:50:36;;;;;;;2.60;1.40;;;;;;;2.58;100.00;152027.41;5015584;28;20985;-81
2023/12/05 09:53:03;;;;;;;2.10;1.30;;;;;;;2.55;100.00;152019.69;5017770;28;20452;-81
2023/12/05 09:55:31;;;;;;;2.60;1.70;;;;;;;2.60;100.00;152032.53;5015779;28;20521;-81
2023/12/05 09:57:58;;;;;;;2.30;1.20;;;;;;;2.66;100.00;152048.00;5017674;28;20445;-82
2023/12/05 10:00:24;;;;;;;1.70;1.10;;;;;;;2.69;100.00;152057.00;5016456;28;20517;-82
2023/12/05 10:02:53;;;;;;;1.93;1.27;;;;;;;2.72;100.00;152064.75;5032579;28;20476;-82
2023/12/05 10:05:21;;;;;;;2.20;1.20;;;;;;;2.74;100.00;152069.88;5032439;28;20456;-82
2023/12/05 10:07:48;;;;;;;4.23;1.60;;;;;;;2.74;100.00;152068.56;5015500;28;21001;-82
2023/12/05 10:10:15;;;;;;;1.83;1.23;;;;;;;2.78;100.00;152078.88;5017320;28;20487;-81
2023/12/05 10:12:43;;;;;;;2.90;1.17;;;;;;;2.76;100.00;152075.00;4998878;28;20452;-81
2023/12/05 10:15:10;;;;;;;1.80;1.03;;;;;;;2.72;100.00;152064.75;5017352;28;20459;-82
2023/12/05 10:17:37;;;;;;;2.10;1.37;;;;;;;2.72;100.00;152064.75;5015347;28;20453;-81
2023/12/05 10:20:05;;;;;;;2.80;1.57;;;;;;;2.81;100.00;152086.56;5016384;28;20534;-82
2023/12/05 10:22:32;;;;;;;2.07;1.10;;;;;;;2.83;100.00;152091.75;5032368;28;20986;-83
2023/12/05 10:24:58;;;;;;;2.10;1.33;;;;;;;2.76;100.00;152073.72;5017565;28;20460;-82
2023/12/05 10:27:25;;;;;;;1.80;1.17;;;;;;;2.84;100.00;152095.59;5015989;28;20459;-83
2023/12/05 10:29:53;;;;;;;1.50;1.00;;;;;;;2.86;100.00;152099.47;5017562;28;20462;-82
2023/12/05 10:32:25;;;;;;;2.57;1.27;;;;;;;2.87;100.00;152103.31;5023443;28;20486;-82
2023/12/05 10:34:53;;;;;;;2.60;1.33;;;;;;;2.87;100.00;152102.00;5014467;28;20460;-81
2023/12/05 10:37:23;;;;;;;1.90;1.30;;;;;;;2.98;100.00;152130.31;5014670;28;20824;-81
2023/12/05 10:39:50;;;;;;;3.17;1.60;;;;;;;3.03;100.00;152144.47;5016823;28;20938;-81
2023/12/05 10:42:18;;;;;;;2.70;1.27;;;;;;;3.02;100.00;152140.59;5017577;28;20443;-81
2023/12/05 10:44:44;;;;;;;1.90;1.20;;;;;;;3.02;100.00;152140.59;5018110;28;20462;-82
2023/12/05 10:47:13;;;;;;;1.50;1.10;;;;;;;3.14;100.00;152170.22;5016728;28;20534;-81
2023/12/05 10:49:43;;;;;;;1.80;1.30;;;;;;;3.19;100.00;152184.38;5031729;28;20546;-82
2023/12/05 10:52:12;;;;;;;1.90;1.20;;;;;;;3.19;100.00;152183.06;5013852;28;20985;-82
2023/12/05 10:54:39;;;;;;;2.50;1.30;;;;;;;3.15;100.00;152172.81;5032238;28;20501;-82
2023/12/05 10:57:09;;;;;;;1.70;1.47;;;;;;;3.18;100.00;152181.78;5014544;28;20975;-82
2023/12/05 10:59:40;;;;;;;1.83;1.30;;;;;;;3.25;100.00;152198.53;5032142;28;20456;-82
2023/12/05 11:02:14;;;;;;;1.77;1.00;;;;;;;3.16;100.00;152176.66;5016828;28;20456;-82
2023/12/05 11:04:41;;;;;;;1.90;1.10;;;;;;;3.14;100.00;152171.50;5024042;28;20443;-82
2023/12/05 11:07:08;;;;;;;1.60;1.03;;;;;;;3.22;100.00;152192.09;5018763;28;21078;-81
2023/12/05 11:09:39;;;;;;;1.70;1.20;;;;;;;3.19;100.00;152184.38;5021806;28;20816;-83
2023/12/05 11:12:06;;;;;;;1.53;1.10;;;;;;;3.17;100.00;152179.22;5036356;28;20972;-83
2023/12/05 11:14:34;;;;;;;2.17;0.97;;;;;;;3.12;100.00;152165.06;5020996;28;20459;-83
2023/12/05 11:17:03;;;;;;;1.33;1.00;;;;;;;3.13;100.00;152168.91;5034234;28;20474;-84
2023/12/05 11:19:36;;;;;;;1.63;1.00;;;;;;;3.14;100.00;152170.22;5020365;28;20456;-83
2023/12/05 11:22:10;;;;;;;2.33;1.03;;;;;;;3.14;100.00;152171.50;5033953;28;20803;-84
2023/12/05 11:24:44;;;;;;;1.80;1.03;;;;;;;3.16;100.00;152176.66;5037248;28;20459;-84